createdAt,value
2023-02-27T00:00:34.423Z,4.00
2023-02-27T00:01:34.397Z,4.40
2023-02-27T00:02:34.392Z,3.90
2023-02-27T00:03:34.481Z,4.30
2023-02-27T00:04:34.355Z,4.50
2023-02-27T00:05:34.344Z,4.60
2023-02-27T00:06:34.336Z,4.40
2023-02-27T00:07:34.348Z,4.50
2023-02-27T00:08:34.354Z,4.60
2023-02-27T00:09:34.299Z,4.50
2023-02-27T00:10:34.316Z,4.50
2023-02-27T00:11:34.387Z,4.60
2023-02-27T00:12:34.333Z,4.60
2023-02-27T00:13:34.311Z,4.40
2023-02-27T00:14:34.256Z,4.40
2023-02-27T00:15:34.241Z,4.40
2023-02-27T00:16:34.238Z,4.50
2023-02-27T00:17:34.214Z,4.70
2023-02-27T00:18:34.243Z,4.60
2023-02-27T00:19:34.263Z,5.10
2023-02-27T00:20:34.184Z,4.40
2023-02-27T00:21:36.499Z,5.00
2023-02-27T00:22:34.182Z,5.00
2023-02-27T00:23:34.165Z,4.40
2023-02-27T00:24:34.146Z,4.30
2023-02-27T00:25:34.125Z,4.20
2023-02-27T00:26:34.124Z,4.60
2023-02-27T00:27:34.114Z,4.50
2023-02-27T00:28:34.118Z,4.60
2023-02-27T00:29:34.102Z,4.50
2023-02-27T00:30:34.097Z,4.40
2023-02-27T00:31:34.144Z,4.20
2023-02-27T00:32:34.108Z,4.10
2023-02-27T00:33:34.055Z,4.40
2023-02-27T00:34:34.033Z,4.50
2023-02-27T00:35:34.025Z,4.50
2023-02-27T00:36:34.018Z,4.70
2023-02-27T00:37:34.025Z,4.50
2023-02-27T00:38:34.024Z,4.30
2023-02-27T00:39:33.984Z,4.20
2023-02-27T00:40:33.971Z,4.30
2023-02-27T00:41:33.965Z,4.30
2023-02-27T00:42:33.946Z,4.30
2023-02-27T00:43:33.978Z,4.40
2023-02-27T00:44:33.932Z,4.00
2023-02-27T00:45:33.929Z,4.00
2023-02-27T00:46:33.944Z,4.30
2023-02-27T00:47:33.907Z,3.80
2023-02-27T00:48:33.893Z,4.40
2023-02-27T00:49:33.883Z,4.60
2023-02-27T00:50:33.869Z,4.30
2023-02-27T00:51:33.852Z,4.00
2023-02-27T00:52:33.839Z,4.50
2023-02-27T00:53:33.850Z,4.10
2023-02-27T00:54:33.811Z,4.00
2023-02-27T00:55:33.810Z,4.40
2023-02-27T00:56:33.802Z,3.90
2023-02-27T00:57:33.839Z,4.20
2023-02-27T00:58:33.789Z,4.20
2023-02-27T00:59:33.788Z,4.40
2023-02-27T01:00:33.786Z,4.50
2023-02-27T01:01:33.756Z,4.30
2023-02-27T01:02:33.825Z,4.30
2023-02-27T01:03:33.732Z,4.30
2023-02-27T01:04:33.722Z,4.90
2023-02-27T01:05:33.702Z,4.30
2023-02-27T01:06:33.690Z,4.10
2023-02-27T01:07:33.692Z,4.20
2023-02-27T01:08:33.701Z,4.00
2023-02-27T01:09:33.663Z,4.30
2023-02-27T01:10:33.651Z,4.00
2023-02-27T01:11:33.655Z,4.60
2023-02-27T01:12:33.644Z,4.70
2023-02-27T01:13:33.641Z,4.60
2023-02-27T01:14:33.615Z,4.20
2023-02-27T01:15:33.599Z,4.60
2023-02-27T01:16:33.627Z,4.20
2023-02-27T01:17:33.653Z,4.90
2023-02-27T01:18:33.622Z,4.40
2023-02-27T01:19:33.577Z,3.90
2023-02-27T01:20:33.558Z,4.20
2023-02-27T01:21:33.574Z,4.40
2023-02-27T01:22:33.560Z,4.30
2023-02-27T01:23:33.561Z,4.40
2023-02-27T01:24:33.506Z,4.50
2023-02-27T01:25:33.525Z,4.30
2023-02-27T01:26:33.487Z,4.80
2023-02-27T01:27:33.478Z,4.30
2023-02-27T01:28:33.490Z,4.40
2023-02-27T01:29:33.455Z,4.40
2023-02-27T01:30:33.469Z,4.30
2023-02-27T01:31:33.491Z,4.60
2023-02-27T01:32:33.481Z,3.60
2023-02-27T01:33:33.432Z,4.50
2023-02-27T01:34:34.399Z,4.20
2023-02-27T01:35:33.394Z,4.00
2023-02-27T01:36:33.379Z,4.30
2023-02-27T01:37:33.376Z,4.50
2023-02-27T01:38:33.507Z,4.20
2023-02-27T01:39:33.354Z,4.50
2023-02-27T01:40:33.346Z,4.20
2023-02-27T01:41:33.370Z,3.80
2023-02-27T01:42:33.359Z,4.40
2023-02-27T01:43:33.315Z,4.40
2023-02-27T01:44:33.294Z,4.50
2023-02-27T01:45:33.316Z,4.50
2023-02-27T01:46:33.265Z,4.00
2023-02-27T01:47:33.294Z,4.70
2023-02-27T01:48:33.265Z,4.50
2023-02-27T01:49:33.252Z,4.00
2023-02-27T01:50:33.268Z,4.70
2023-02-27T01:51:33.245Z,4.40
2023-02-27T01:52:33.235Z,4.10
2023-02-27T01:53:33.272Z,4.40
2023-02-27T01:54:33.187Z,4.30
2023-02-27T01:55:33.186Z,4.70
2023-02-27T01:56:33.167Z,4.60
2023-02-27T01:57:33.206Z,4.60
2023-02-27T01:58:33.185Z,4.80
2023-02-27T01:59:33.143Z,4.70
2023-02-27T02:00:33.145Z,5.00
2023-02-27T02:01:33.165Z,4.90
2023-02-27T02:02:33.130Z,4.40
2023-02-27T02:03:33.118Z,4.60
2023-02-27T02:04:33.115Z,4.60
2023-02-27T02:05:33.089Z,4.50
2023-02-27T02:06:33.066Z,4.60
2023-02-27T02:07:33.072Z,4.50
2023-02-27T02:08:33.074Z,4.20
2023-02-27T02:09:33.028Z,4.50
2023-02-27T02:10:33.031Z,4.70
2023-02-27T02:11:33.034Z,4.60
2023-02-27T02:12:32.993Z,4.40
2023-02-27T02:13:33.006Z,4.70
2023-02-27T02:14:32.975Z,4.40
2023-02-27T02:15:32.966Z,4.60
2023-02-27T02:16:32.979Z,4.50
2023-02-27T02:17:32.978Z,4.60
2023-02-27T02:18:32.953Z,4.50
2023-02-27T02:19:32.932Z,4.40
2023-02-27T02:20:32.916Z,4.90
2023-02-27T02:21:32.902Z,4.80
2023-02-27T02:22:32.893Z,5.20
2023-02-27T02:23:32.922Z,4.90
2023-02-27T02:24:32.874Z,4.90
2023-02-27T02:25:32.866Z,5.00
2023-02-27T02:26:33.522Z,4.70
2023-02-27T02:27:32.843Z,4.70
2023-02-27T02:28:32.854Z,4.80
2023-02-27T02:29:32.821Z,4.70
2023-02-27T02:30:32.944Z,4.70
2023-02-27T02:31:32.966Z,4.40
2023-02-27T02:32:32.811Z,4.80
2023-02-27T02:33:32.801Z,4.80
2023-02-27T02:34:32.780Z,4.90
2023-02-27T02:35:32.795Z,5.10
2023-02-27T02:36:32.746Z,4.50
2023-02-27T02:37:32.732Z,4.90
2023-02-27T02:38:33.862Z,4.60
2023-02-27T02:39:32.752Z,4.50
2023-02-27T02:40:32.722Z,4.80
2023-02-27T02:41:32.693Z,4.80
2023-02-27T02:42:32.690Z,4.80
2023-02-27T02:43:32.701Z,5.10
2023-02-27T02:44:32.669Z,5.30
2023-02-27T02:45:32.672Z,5.40
2023-02-27T02:46:32.664Z,5.40
2023-02-27T02:47:32.648Z,5.50
2023-02-27T02:48:32.635Z,5.90
2023-02-27T02:49:32.610Z,6.90
2023-02-27T02:50:32.624Z,5.90
2023-02-27T02:51:32.590Z,5.70
2023-02-27T02:52:32.597Z,5.80
2023-02-27T02:53:37.172Z,5.60
2023-02-27T02:54:33.573Z,5.00
2023-02-27T02:55:32.552Z,5.20
2023-02-27T02:56:32.545Z,5.60
2023-02-27T02:57:32.536Z,5.30
2023-02-27T02:58:32.521Z,4.80
2023-02-27T02:59:32.511Z,5.40
2023-02-27T03:00:32.552Z,5.90
2023-02-27T03:01:32.507Z,5.70
2023-02-27T03:02:32.490Z,5.20
2023-02-27T03:03:32.474Z,5.50
2023-02-27T03:04:32.542Z,5.50
2023-02-27T03:05:32.446Z,5.80
2023-02-27T03:06:32.443Z,5.40
2023-02-27T03:07:32.468Z,5.90
2023-02-27T03:08:32.436Z,5.40
2023-02-27T03:09:32.401Z,5.70
2023-02-27T03:10:32.412Z,6.20
2023-02-27T03:11:32.384Z,5.70
2023-02-27T03:12:32.392Z,5.70
2023-02-27T03:13:32.371Z,5.70
2023-02-27T03:14:32.353Z,5.60
2023-02-27T03:15:32.368Z,5.20
2023-02-27T03:16:32.336Z,5.80
2023-02-27T03:17:32.321Z,5.40
2023-02-27T03:18:32.322Z,5.00
2023-02-27T03:19:32.294Z,5.80
2023-02-27T03:20:32.351Z,5.40
2023-02-27T03:21:32.277Z,5.60
2023-02-27T03:22:32.273Z,5.70
2023-02-27T03:23:32.276Z,5.20
2023-02-27T03:24:32.260Z,5.20
2023-02-27T03:25:32.229Z,4.80
2023-02-27T03:26:32.228Z,5.50
2023-02-27T03:27:32.208Z,5.80
2023-02-27T03:28:32.228Z,5.10
2023-02-27T03:29:32.191Z,5.20
2023-02-27T03:30:32.189Z,5.20
2023-02-27T03:31:32.307Z,5.90
2023-02-27T03:32:32.214Z,5.30
2023-02-27T03:33:32.160Z,5.80
2023-02-27T03:34:32.145Z,5.70
2023-02-27T03:35:32.130Z,5.30
2023-02-27T03:36:32.116Z,5.50
2023-02-27T03:37:32.198Z,5.30
2023-02-27T03:38:32.215Z,5.50
2023-02-27T03:39:32.081Z,5.50
2023-02-27T03:40:32.082Z,6.00
2023-02-27T03:41:32.065Z,5.60
2023-02-27T03:42:32.066Z,5.10
2023-02-27T03:43:32.057Z,4.70
2023-02-27T03:44:32.035Z,5.60
2023-02-27T03:45:32.022Z,5.20
2023-02-27T03:46:32.081Z,5.60
2023-02-27T03:47:32.004Z,5.00
2023-02-27T03:48:32.001Z,5.40
2023-02-27T03:49:31.986Z,5.20
2023-02-27T03:50:31.975Z,5.70
2023-02-27T03:51:31.957Z,5.50
2023-02-27T03:52:31.959Z,5.50
2023-02-27T03:53:31.959Z,5.80
2023-02-27T03:54:31.928Z,5.80
2023-02-27T03:55:31.916Z,5.90
2023-02-27T03:56:31.910Z,6.10
2023-02-27T03:57:31.900Z,6.30
2023-02-27T03:58:31.907Z,5.60
2023-02-27T03:59:31.874Z,6.30
2023-02-27T04:00:31.882Z,5.80
2023-02-27T04:01:31.969Z,5.90
2023-02-27T04:02:31.885Z,5.70
2023-02-27T04:03:31.835Z,6.00
2023-02-27T04:04:31.842Z,5.90
2023-02-27T04:05:31.826Z,6.00
2023-02-27T04:06:31.802Z,6.10
2023-02-27T04:07:31.807Z,6.10
2023-02-27T04:08:31.816Z,5.80
2023-02-27T04:09:31.774Z,5.80
2023-02-27T04:10:31.779Z,6.20
2023-02-27T04:11:31.745Z,6.10
2023-02-27T04:12:31.743Z,6.00
2023-02-27T04:13:31.740Z,6.30
2023-02-27T04:14:31.724Z,6.30
2023-02-27T04:15:31.703Z,6.40
2023-02-27T04:16:31.702Z,6.10
2023-02-27T04:17:31.683Z,6.00
2023-02-27T04:18:31.692Z,6.80
2023-02-27T04:19:31.667Z,6.20
2023-02-27T04:20:31.663Z,6.30
2023-02-27T04:21:31.642Z,6.10
2023-02-27T04:22:31.662Z,6.30
2023-02-27T04:23:31.639Z,5.60
2023-02-27T04:24:31.614Z,6.40
2023-02-27T04:25:31.614Z,5.60
2023-02-27T04:26:31.603Z,6.00
2023-02-27T04:27:31.586Z,5.30
2023-02-27T04:28:31.585Z,6.20
2023-02-27T04:29:31.563Z,5.70
2023-02-27T04:30:31.556Z,6.10
2023-02-27T04:31:31.812Z,6.00
2023-02-27T04:32:31.675Z,6.00
2023-02-27T04:33:31.547Z,5.90
2023-02-27T04:34:31.519Z,5.90
2023-02-27T04:35:31.507Z,5.60
2023-02-27T04:36:31.498Z,6.10
2023-02-27T04:37:31.512Z,6.00
2023-02-27T04:38:31.490Z,5.60
2023-02-27T04:39:31.459Z,6.50
2023-02-27T04:40:31.460Z,6.10
2023-02-27T04:41:31.450Z,6.00
2023-02-27T04:42:31.439Z,6.10
2023-02-27T04:43:31.441Z,5.70
2023-02-27T04:44:31.421Z,6.10
2023-02-27T04:45:31.433Z,6.10
2023-02-27T04:46:31.401Z,5.70
2023-02-27T04:47:31.394Z,5.50
2023-02-27T04:48:31.402Z,5.60
2023-02-27T04:49:31.368Z,6.30
2023-02-27T04:50:31.373Z,5.70
2023-02-27T04:51:31.340Z,5.70
2023-02-27T04:52:31.366Z,6.00
2023-02-27T04:53:31.329Z,6.20
2023-02-27T04:54:31.301Z,6.00
2023-02-27T04:55:31.302Z,5.90
2023-02-27T04:56:31.294Z,5.80
2023-02-27T04:57:31.282Z,5.90
2023-02-27T04:58:31.291Z,6.40
2023-02-27T04:59:31.284Z,6.00
2023-02-27T05:00:31.247Z,6.20
2023-02-27T05:01:31.264Z,6.60
2023-02-27T05:02:31.303Z,5.50
2023-02-27T05:03:31.232Z,5.90
2023-02-27T05:04:31.208Z,6.00
2023-02-27T05:05:31.200Z,6.30
2023-02-27T05:06:31.181Z,6.10
2023-02-27T05:07:31.178Z,6.00
2023-02-27T05:08:31.177Z,5.90
2023-02-27T05:09:31.165Z,6.00
2023-02-27T05:10:31.142Z,6.00
2023-02-27T05:11:31.144Z,6.00
2023-02-27T05:12:31.253Z,6.40
2023-02-27T05:13:31.138Z,5.90
2023-02-27T05:14:31.122Z,6.10
2023-02-27T05:15:31.110Z,6.00
2023-02-27T05:16:31.113Z,6.20
2023-02-27T05:17:31.068Z,6.20
2023-02-27T05:18:31.077Z,5.80
2023-02-27T05:19:31.078Z,6.60
2023-02-27T05:20:31.040Z,6.40
2023-02-27T05:21:31.031Z,6.10
2023-02-27T05:22:31.031Z,5.80
2023-02-27T05:23:31.028Z,6.40
2023-02-27T05:24:30.994Z,6.20
2023-02-27T05:25:31.003Z,6.20
2023-02-27T05:26:30.978Z,6.50
2023-02-27T05:27:30.979Z,6.40
2023-02-27T05:28:30.972Z,6.50
2023-02-27T05:29:30.975Z,6.00
2023-02-27T05:30:30.937Z,6.00
2023-02-27T05:31:31.060Z,6.10
2023-02-27T05:32:30.938Z,6.20
2023-02-27T05:33:30.993Z,6.10
2023-02-27T05:34:30.900Z,5.80
2023-02-27T05:35:31.009Z,6.50
2023-02-27T05:36:30.865Z,6.10
2023-02-27T05:37:30.879Z,6.50
2023-02-27T05:38:30.865Z,6.80
2023-02-27T05:39:31.013Z,6.30
2023-02-27T05:40:30.824Z,6.20
2023-02-27T05:41:30.903Z,11.80
2023-02-27T05:42:30.824Z,14.50
2023-02-27T05:43:30.853Z,8.80
2023-02-27T05:44:30.872Z,7.60
2023-02-27T05:45:30.771Z,6.80
2023-02-27T05:46:30.773Z,6.80
2023-02-27T05:47:30.781Z,7.00
2023-02-27T05:48:30.753Z,6.40
2023-02-27T05:49:30.737Z,6.10
2023-02-27T05:50:30.749Z,6.30
2023-02-27T05:51:30.732Z,6.10
2023-02-27T05:52:30.702Z,6.30
2023-02-27T05:53:30.710Z,6.00
2023-02-27T05:54:30.706Z,6.50
2023-02-27T05:55:30.673Z,5.90
2023-02-27T05:56:30.734Z,6.30
2023-02-27T05:57:30.646Z,5.90
2023-02-27T05:58:30.665Z,6.10
2023-02-27T05:59:30.631Z,5.90
2023-02-27T06:00:30.624Z,5.60
2023-02-27T06:01:30.616Z,6.60
2023-02-27T06:02:30.663Z,5.70
2023-02-27T06:03:30.697Z,6.30
2023-02-27T06:04:30.585Z,6.00
2023-02-27T06:05:30.566Z,5.80
2023-02-27T06:06:30.565Z,6.30
2023-02-27T06:07:30.544Z,6.30
2023-02-27T06:08:30.558Z,5.80
2023-02-27T06:09:30.525Z,6.10
2023-02-27T06:10:30.523Z,6.50
2023-02-27T06:11:30.512Z,6.30
2023-02-27T06:12:30.516Z,6.40
2023-02-27T06:13:30.488Z,6.60
2023-02-27T06:14:30.488Z,6.60
2023-02-27T06:15:30.463Z,6.60
2023-02-27T06:16:30.896Z,6.70
2023-02-27T06:17:30.447Z,6.30
2023-02-27T06:18:30.448Z,5.90
2023-02-27T06:19:30.427Z,6.20
2023-02-27T06:20:30.415Z,6.70
2023-02-27T06:21:30.405Z,6.40
2023-02-27T06:22:30.777Z,6.40
2023-02-27T06:23:30.398Z,5.90
2023-02-27T06:24:30.366Z,6.60
2023-02-27T06:25:30.357Z,6.10
2023-02-27T06:26:30.357Z,6.30
2023-02-27T06:27:30.361Z,6.20
2023-02-27T06:28:30.346Z,6.20
2023-02-27T06:29:30.325Z,6.50
2023-02-27T06:30:30.329Z,6.00
2023-02-27T06:31:30.295Z,6.60
2023-02-27T06:32:30.294Z,6.80
2023-02-27T06:33:30.281Z,6.00
2023-02-27T06:34:30.271Z,6.40
2023-02-27T06:35:30.252Z,6.60
2023-02-27T06:36:30.626Z,6.90
2023-02-27T06:37:30.302Z,6.60
2023-02-27T06:38:30.465Z,6.40
2023-02-27T06:39:30.210Z,6.00
2023-02-27T06:40:30.203Z,6.60
2023-02-27T06:41:30.189Z,6.80
2023-02-27T06:42:30.182Z,6.80
2023-02-27T06:43:30.185Z,7.00
2023-02-27T06:44:30.159Z,7.20
2023-02-27T06:45:30.150Z,7.40
2023-02-27T06:46:30.371Z,6.70
2023-02-27T06:47:30.156Z,7.40
2023-02-27T06:48:30.129Z,7.30
2023-02-27T06:49:30.114Z,7.40
2023-02-27T06:50:30.098Z,7.20
2023-02-27T06:51:30.078Z,7.90
2023-02-27T06:52:30.078Z,7.60
2023-02-27T06:53:30.089Z,7.50
2023-02-27T06:54:30.084Z,7.00
2023-02-27T06:55:30.044Z,7.60
2023-02-27T06:56:30.047Z,7.90
2023-02-27T06:57:30.027Z,6.80
2023-02-27T06:58:30.037Z,7.90
2023-02-27T06:59:30.007Z,8.40
2023-02-27T07:00:30.087Z,8.50
2023-02-27T07:01:30.009Z,9.10
2023-02-27T07:02:29.997Z,8.50
2023-02-27T07:03:29.993Z,8.60
2023-02-27T07:04:30.014Z,9.30
2023-02-27T07:05:29.942Z,8.50
2023-02-27T07:07:35.414Z,8.90
2023-02-27T07:07:35.661Z,8.10
2023-02-27T07:08:30.928Z,8.00
2023-02-27T07:09:29.896Z,8.40
2023-02-27T07:10:29.925Z,10.40
2023-02-27T07:11:29.891Z,9.10
2023-02-27T07:12:29.921Z,9.40
2023-02-27T07:13:29.868Z,10.20
2023-02-27T07:14:29.943Z,11.20
2023-02-27T07:15:29.829Z,9.90
2023-02-27T07:16:29.951Z,10.10
2023-02-27T07:17:29.816Z,10.10
2023-02-27T07:18:29.817Z,10.70
2023-02-27T07:19:29.805Z,10.80
2023-02-27T07:20:29.790Z,10.00
2023-02-27T07:21:29.765Z,10.60
2023-02-27T07:22:29.778Z,11.00
2023-02-27T07:23:30.220Z,10.70
2023-02-27T07:24:29.765Z,11.00
2023-02-27T07:25:29.738Z,9.90
2023-02-27T07:26:29.961Z,10.60
2023-02-27T07:27:29.730Z,11.10
2023-02-27T07:28:29.748Z,10.40
2023-02-27T07:29:29.687Z,9.50
2023-02-27T07:30:29.771Z,9.90
2023-02-27T07:31:29.667Z,9.00
2023-02-27T07:32:29.658Z,8.00
2023-02-27T07:33:29.666Z,9.20
2023-02-27T07:34:29.646Z,8.90
2023-02-27T07:35:29.656Z,9.40
2023-02-27T07:36:29.696Z,9.60
2023-02-27T07:37:29.598Z,11.20
2023-02-27T07:38:29.616Z,11.60
2023-02-27T07:39:29.588Z,10.70
2023-02-27T07:40:29.751Z,10.90
2023-02-27T07:41:31.129Z,10.50
2023-02-27T07:42:29.600Z,9.60
2023-02-27T07:43:29.586Z,10.00
2023-02-27T07:44:29.552Z,13.10
2023-02-27T07:45:29.530Z,12.70
2023-02-27T07:46:29.839Z,10.80
2023-02-27T07:47:29.505Z,10.90
2023-02-27T07:48:29.513Z,10.40
2023-02-27T07:49:29.480Z,10.20
2023-02-27T07:50:29.524Z,9.90
2023-02-27T07:51:29.491Z,9.90
2023-02-27T07:53:29.459Z,7.60
2023-02-27T07:54:29.421Z,6.70
2023-02-27T07:55:29.423Z,7.50
2023-02-27T07:56:29.773Z,7.20
2023-02-27T07:57:29.428Z,7.10
2023-02-27T07:58:29.425Z,7.70
2023-02-27T07:59:29.415Z,7.10
2023-02-27T08:00:29.385Z,7.50
2023-02-27T08:01:29.400Z,6.80
2023-02-27T08:02:29.383Z,7.30
2023-02-27T08:03:29.344Z,7.00
2023-02-27T08:04:29.396Z,7.10
2023-02-27T08:05:29.324Z,7.30
2023-02-27T08:06:29.695Z,7.00
2023-02-27T08:07:29.290Z,7.10
2023-02-27T08:08:29.344Z,5.80
2023-02-27T08:09:29.273Z,4.60
2023-02-27T08:10:29.302Z,4.50
2023-02-27T08:11:29.711Z,3.60
2023-02-27T08:12:29.247Z,3.40
2023-02-27T08:13:58.685Z,3.80
2023-02-27T08:14:30.256Z,3.40
2023-02-27T08:15:29.208Z,3.30
2023-02-27T08:16:29.714Z,3.10
2023-02-27T08:17:29.187Z,3.50
2023-02-27T08:18:29.185Z,3.20
2023-02-27T08:19:29.165Z,3.70
2023-02-27T08:20:29.163Z,3.40
2023-02-27T08:21:29.554Z,3.20
2023-02-27T08:22:29.148Z,3.30
2023-02-27T08:23:29.137Z,2.60
2023-02-27T08:24:29.197Z,3.10
2023-02-27T08:25:29.097Z,3.20
2023-02-27T08:26:29.508Z,3.30
2023-02-27T08:27:29.094Z,3.10
2023-02-27T08:28:29.098Z,3.40
2023-02-27T08:29:29.072Z,3.20
2023-02-27T08:30:29.093Z,3.40
2023-02-27T08:31:29.160Z,3.00
2023-02-27T08:32:29.078Z,3.10
2023-02-27T08:33:29.029Z,3.40
2023-02-27T08:34:29.012Z,3.40
2023-02-27T08:35:29.001Z,3.30
2023-02-27T08:36:29.418Z,3.20
2023-02-27T08:37:29.024Z,3.20
2023-02-27T08:38:28.981Z,3.40
2023-02-27T08:39:28.953Z,3.70
2023-02-27T08:40:28.942Z,3.50
2023-02-27T08:41:28.942Z,3.50
2023-02-27T08:42:28.934Z,3.30
2023-02-27T08:43:28.920Z,3.20
2023-02-27T08:44:28.903Z,3.30
2023-02-27T08:45:28.904Z,3.40
2023-02-27T08:46:29.293Z,2.70
2023-02-27T08:47:28.874Z,2.60
2023-02-27T08:48:28.859Z,2.60
2023-02-27T08:49:28.858Z,2.60
2023-02-27T08:50:28.933Z,3.10
2023-02-27T08:51:29.203Z,3.20
2023-02-27T08:52:28.811Z,2.90
2023-02-27T08:53:28.871Z,2.30
2023-02-27T08:54:28.780Z,2.60
2023-02-27T08:55:28.784Z,2.90
2023-02-27T08:56:29.088Z,2.50
2023-02-27T08:57:28.765Z,2.80
2023-02-27T08:58:28.760Z,2.60
2023-02-27T08:59:28.739Z,2.70
2023-02-27T09:00:28.720Z,2.50
2023-02-27T09:01:29.255Z,2.40
2023-02-27T09:02:28.770Z,2.60
2023-02-27T09:03:28.937Z,2.50
2023-02-27T09:04:28.692Z,2.20
2023-02-27T09:05:28.678Z,2.50
2023-02-27T09:06:28.970Z,2.40
2023-02-27T09:07:28.652Z,2.90
2023-02-27T09:08:28.666Z,2.60
2023-02-27T09:09:28.632Z,2.50
2023-02-27T09:10:28.632Z,2.50
2023-02-27T09:11:28.924Z,2.50
2023-02-27T09:12:28.637Z,2.50
2023-02-27T09:13:28.602Z,2.10
2023-02-27T09:14:28.585Z,2.20
2023-02-27T09:15:28.592Z,2.30
2023-02-27T09:16:29.001Z,2.20
2023-02-27T09:17:28.556Z,2.30
2023-02-27T09:18:28.553Z,2.20
2023-02-27T09:19:28.539Z,2.60
2023-02-27T09:20:28.530Z,2.10
2023-02-27T09:21:28.504Z,2.00
2023-02-27T09:22:28.503Z,2.40
2023-02-27T09:23:28.494Z,2.40
2023-02-27T09:24:28.482Z,2.30
2023-02-27T09:25:28.464Z,2.50
2023-02-27T09:26:40.928Z,2.00
2023-02-27T09:27:29.441Z,2.40
2023-02-27T09:28:28.453Z,2.20
2023-02-27T09:29:28.447Z,2.30
2023-02-27T09:30:28.429Z,2.50
2023-02-27T09:31:31.233Z,2.10
2023-02-27T09:32:28.551Z,2.20
2023-02-27T09:33:29.308Z,2.50
2023-02-27T09:34:28.394Z,2.50
2023-02-27T09:35:28.420Z,2.20
2023-02-27T09:36:28.687Z,2.00
2023-02-27T09:37:28.363Z,2.30
2023-02-27T09:38:28.353Z,2.10
2023-02-27T09:39:28.323Z,2.50
2023-02-27T09:40:28.318Z,2.30
2023-02-27T09:41:28.624Z,2.00
2023-02-27T09:42:28.298Z,2.40
2023-02-27T09:43:28.383Z,2.20
2023-02-27T09:44:44.915Z,2.10
2023-02-27T09:45:29.273Z,2.30
2023-02-27T09:46:28.694Z,2.00
2023-02-27T09:47:28.254Z,2.40
2023-02-27T09:48:28.224Z,2.40
2023-02-27T09:49:28.215Z,2.40
2023-02-27T09:50:28.206Z,2.10
2023-02-27T09:51:28.660Z,2.20
2023-02-27T09:52:28.194Z,2.20
2023-02-27T09:53:28.188Z,2.20
2023-02-27T09:54:28.164Z,2.20
2023-02-27T09:55:28.146Z,2.60
2023-02-27T09:56:28.533Z,2.30
2023-02-27T09:57:28.144Z,2.30
2023-02-27T09:58:28.145Z,2.40
2023-02-27T09:59:28.117Z,2.10
2023-02-27T10:00:28.094Z,2.00
2023-02-27T10:01:28.490Z,2.40
2023-02-27T10:02:28.081Z,2.40
2023-02-27T10:03:28.126Z,1.80
2023-02-27T10:04:28.068Z,2.10
2023-02-27T10:05:28.039Z,2.30
2023-02-27T10:06:28.360Z,2.20
2023-02-27T10:07:28.024Z,2.10
2023-02-27T10:08:28.036Z,2.30
2023-02-27T10:09:28.008Z,1.80
2023-02-27T10:10:27.996Z,2.20
2023-02-27T10:11:27.980Z,1.70
2023-02-27T10:12:27.984Z,2.00
2023-02-27T10:13:27.968Z,2.40
2023-02-27T10:14:27.984Z,2.30
2023-02-27T10:15:28.039Z,1.90
2023-02-27T10:16:28.286Z,1.80
2023-02-27T10:17:27.916Z,1.60
2023-02-27T10:18:30.736Z,1.50
2023-02-27T10:19:27.897Z,1.90
2023-02-27T10:20:27.904Z,1.40
2023-02-27T10:21:30.848Z,1.70
2023-02-27T10:22:27.868Z,1.60
2023-02-27T10:23:27.864Z,1.50
2023-02-27T10:24:27.842Z,1.60
2023-02-27T10:25:31.938Z,1.80
2023-02-27T10:26:27.831Z,1.90
2023-02-27T10:27:27.797Z,1.80
2023-02-27T10:28:27.805Z,1.70
2023-02-27T10:29:27.808Z,1.60
2023-02-27T10:30:30.840Z,1.50
2023-02-27T10:31:28.158Z,1.50
2023-02-27T10:32:27.788Z,1.40
2023-02-27T10:33:28.446Z,1.40
2023-02-27T10:34:27.771Z,1.60
2023-02-27T10:35:27.807Z,1.40
2023-02-27T10:36:34.177Z,1.50
2023-02-27T10:37:28.704Z,1.30
2023-02-27T10:38:27.712Z,1.30
2023-02-27T10:39:27.723Z,1.10
2023-02-27T10:40:27.666Z,1.10
2023-02-27T10:41:28.050Z,1.00
2023-02-27T10:42:27.696Z,0.90
2023-02-27T10:43:27.631Z,1.00
2023-02-27T10:44:27.664Z,0.80
2023-02-27T10:45:27.623Z,1.00
2023-02-27T10:46:28.012Z,0.80
2023-02-27T10:47:27.605Z,0.90
2023-02-27T10:48:27.579Z,0.90
2023-02-27T10:49:27.574Z,1.30
2023-02-27T10:50:27.548Z,0.90
2023-02-27T10:51:27.950Z,1.00
2023-02-27T10:52:27.550Z,1.00
2023-02-27T10:53:27.511Z,1.00
2023-02-27T10:54:27.513Z,1.10
2023-02-27T10:55:27.567Z,0.90
2023-02-27T10:56:27.859Z,0.90
2023-02-27T10:57:27.468Z,0.80
2023-02-27T10:58:28.508Z,0.90
2023-02-27T10:59:27.498Z,0.80
2023-02-27T11:00:27.468Z,0.70
2023-02-27T11:01:27.749Z,0.90
2023-02-27T11:02:27.408Z,0.80
2023-02-27T11:03:27.407Z,0.90
2023-02-27T11:04:27.427Z,0.80
2023-02-27T11:05:27.393Z,0.80
2023-02-27T11:06:27.376Z,0.80
2023-02-27T11:07:27.347Z,0.90
2023-02-27T11:08:27.349Z,0.80
2023-02-27T11:09:27.360Z,0.70
2023-02-27T11:10:27.364Z,0.80
2023-02-27T11:11:27.973Z,0.80
2023-02-27T11:12:27.309Z,0.70
2023-02-27T11:13:27.308Z,0.90
2023-02-27T11:14:27.299Z,1.10
2023-02-27T11:15:27.289Z,0.70
2023-02-27T11:16:27.261Z,0.70
2023-02-27T11:17:27.244Z,0.80
2023-02-27T11:18:27.313Z,0.80
2023-02-27T11:19:27.254Z,0.60
2023-02-27T11:20:27.234Z,0.60
2023-02-27T11:21:27.704Z,0.70
2023-02-27T11:22:27.204Z,0.80
2023-02-27T11:23:27.189Z,0.70
2023-02-27T11:24:27.194Z,0.70
2023-02-27T11:25:27.159Z,0.70
2023-02-27T11:26:27.206Z,0.70
2023-02-27T11:27:27.140Z,0.70
2023-02-27T11:28:27.142Z,0.90
2023-02-27T11:29:27.141Z,0.60
2023-02-27T11:30:27.132Z,0.80
2023-02-27T11:31:27.515Z,0.50
2023-02-27T11:32:27.128Z,0.60
2023-02-27T11:33:27.095Z,0.70
2023-02-27T11:34:27.116Z,0.60
2023-02-27T11:35:27.071Z,0.70
2023-02-27T11:36:27.071Z,0.50
2023-02-27T11:37:27.055Z,0.70
2023-02-27T11:38:27.115Z,0.60
2023-02-27T11:39:27.027Z,0.80
2023-02-27T11:40:27.015Z,1.00
2023-02-27T11:41:27.268Z,0.80
2023-02-27T11:42:26.998Z,0.50
2023-02-27T11:43:26.985Z,0.60
2023-02-27T11:44:34.121Z,0.50
2023-02-27T11:46:21.485Z,0.50
2023-02-27T11:46:46.890Z,0.50
2023-02-27T11:47:27.986Z,0.40
2023-02-27T11:48:27.086Z,0.50
2023-02-27T11:49:26.930Z,0.60
2023-02-27T11:50:26.919Z,0.30
2023-02-27T11:51:27.263Z,0.50
2023-02-27T11:52:26.884Z,0.40
2023-02-27T11:53:26.877Z,0.60
2023-02-27T11:54:26.862Z,0.50
2023-02-27T11:55:26.857Z,0.60
2023-02-27T11:56:26.892Z,0.60
2023-02-27T11:57:26.820Z,0.50
2023-02-27T11:58:26.873Z,0.50
2023-02-27T11:59:26.844Z,0.50
2023-02-27T12:00:26.797Z,0.50
2023-02-27T12:01:27.217Z,0.50
2023-02-27T12:02:26.822Z,0.50
2023-02-27T12:03:26.758Z,0.50
2023-02-27T12:04:26.764Z,0.60
2023-02-27T12:05:26.735Z,0.70
2023-02-27T12:06:26.718Z,0.60
2023-02-27T12:07:26.730Z,0.60
2023-02-27T12:08:26.722Z,0.60
2023-02-27T12:09:26.735Z,0.60
2023-02-27T12:10:26.695Z,0.60
2023-02-27T12:11:26.730Z,0.50
2023-02-27T12:12:26.655Z,0.60
2023-02-27T12:13:26.648Z,0.50
2023-02-27T12:14:26.662Z,0.40
2023-02-27T12:15:26.639Z,0.40
2023-02-27T12:16:27.070Z,0.50
2023-02-27T12:17:26.608Z,0.40
2023-02-27T12:18:26.590Z,0.70
2023-02-27T12:19:26.609Z,0.50
2023-02-27T12:20:26.596Z,0.60
2023-02-27T12:21:26.558Z,0.50
2023-02-27T12:22:26.574Z,0.60
2023-02-27T12:23:26.543Z,0.50
2023-02-27T12:24:26.531Z,0.50
2023-02-27T12:25:26.525Z,0.50
2023-02-27T12:26:26.793Z,0.50
2023-02-27T12:27:26.491Z,0.30
2023-02-27T12:28:26.502Z,0.60
2023-02-27T12:29:26.530Z,0.60
2023-02-27T12:30:26.465Z,0.50
2023-02-27T12:31:26.875Z,0.70
2023-02-27T12:32:26.506Z,0.50
2023-02-27T12:33:26.425Z,0.50
2023-02-27T12:34:26.464Z,0.70
2023-02-27T12:35:26.548Z,0.60
2023-02-27T12:36:26.392Z,0.40
2023-02-27T12:37:26.384Z,0.50
2023-02-27T12:38:26.373Z,0.60
2023-02-27T12:39:26.385Z,0.40
2023-02-27T12:40:26.351Z,0.50
2023-02-27T12:41:26.697Z,0.60
2023-02-27T12:42:26.324Z,0.50
2023-02-27T12:43:26.332Z,0.60
2023-02-27T12:44:26.314Z,0.60
2023-02-27T12:45:26.344Z,0.80
2023-02-27T12:46:26.287Z,0.50
2023-02-27T12:47:26.299Z,0.70
2023-02-27T12:48:26.256Z,0.60
2023-02-27T12:49:26.277Z,0.60
2023-02-27T12:50:26.246Z,0.60
2023-02-27T12:51:26.620Z,0.60
2023-02-27T12:52:26.236Z,0.60
2023-02-27T12:53:26.210Z,0.80
2023-02-27T12:54:26.222Z,0.60
2023-02-27T12:55:26.200Z,0.50
2023-02-27T12:56:26.168Z,0.60
2023-02-27T12:57:26.160Z,0.70
2023-02-27T12:58:26.160Z,0.60
2023-02-27T12:59:26.170Z,0.70
2023-02-27T13:00:26.139Z,0.70
2023-02-27T13:01:26.643Z,0.60
2023-02-27T13:02:26.114Z,0.70
2023-02-27T13:03:26.103Z,0.50
2023-02-27T13:04:26.115Z,0.70
2023-02-27T13:05:26.089Z,0.50
2023-02-27T13:06:26.081Z,0.70
2023-02-27T13:07:26.070Z,0.60
2023-02-27T13:08:26.064Z,0.60
2023-02-27T13:09:26.083Z,0.50
2023-02-27T13:10:26.031Z,0.70
2023-02-27T13:11:26.467Z,0.40
2023-02-27T13:12:26.007Z,0.50
2023-02-27T13:13:26.008Z,0.70
2023-02-27T13:14:26.007Z,0.60
2023-02-27T13:15:25.985Z,0.60
2023-02-27T13:16:26.003Z,0.50
2023-02-27T13:17:26.197Z,0.50
2023-02-27T13:18:25.947Z,0.50